Bei Facebook empfehlenBei Twitter postenGoogle plusPinterest

Das Wetter im Erzgebirge am 19.06.2017

Wetter und Klima am 19.06.2017 Holzhau im Erzgebirge (630m ü.NN)
Letzte gemessene Temperatur und Uhrzeit der Messung23:45:00 Uhr14.90 °C
Temperatur (Maximum / Höchstwert) und Uhrzeit der Messung16:15:00 Uhr28.60 °C
Temperatur (Minimum / Tiefstwert) und Uhrzeit der Messung05:45:007.40 °C
Errechneter Absolutwert der Temperaturschwankungen zwischen Tmin und Tmax des Tages21.20 K
Errechnete Tagesmitteltemperatur18.93333 °C
Gesamt - Niederschlag des Tages (in flüssiger Form)0.00 Liter / m²
Luftdruck (Maximum / Höchstwert) und Zeitpunkt der Messung00:30:00 Uhr1021.50 hPa
Luftdruck (Minimum / Tiefstwert) und Zeitpunkt der Messung22:30:00 Uhr1016.80 hPa
Errechneter Absolutwert der Luftdruckschwankungen des Tages4.70 hPa
Höchste gemessene Windgeschwindigkeit und Uhrzeit der Messung08:30:00 Uhr660.96 km/h
Errechnete Windhäufigkeit in Relation zu den Messwerten des Tages25.00000 %
Niedrigste Windkühle (Windchill) und Zeitpunkt der Messung05:45:00 Uhr7.40 °C
Taupunkt (Maximum / Höchstwert) und Uhrzeit der Messung08:15:00 Uhr14.30 °C
Taupunkt (Minimum / Tiefstwert) und Uhrzeit der Messung05:45:005.90 °C
Anzahl der automatisch eingelesenen Messwerte 96

Detaillierte Wetter- und Klima- Messwerte für den 19.06.2017 in Holzhau im Erzgebirge (630m ü.NN)
ZeitTemperaturLuftdruckRel. LuftfeuchteWindWindrichtungWindchillTaupunktNiederschlag l/m²
23:45:0014.90 °C1016.90 hPa73.00 %10.10 °C 
23:30:0014.90 °C1016.90 hPa73.00 %10.10 °C 
23:15:0015.00 °C1017.00 hPa72.00 %10.00 °C 
23:00:0015.30 °C1017.00 hPa70.00 %9.90 °C 
22:45:0015.60 °C1016.90 hPa70.00 %10.20 °C 
22:30:0015.80 °C1016.80 hPa69.00 %10.10 °C 
22:15:0016.10 °C1017.00 hPa67.00 %10.00 °C 
22:00:0016.60 °C1016.80 hPa66.00 %10.20 °C 
21:45:0017.40 °C1016.80 hPa64.00 %10.50 °C 
21:30:0018.10 °C1016.80 hPa62.00 %10.70 °C 
21:15:0019.10 °C1016.90 hPa59.00 %10.90 °C 
21:00:0020.30 °C1016.80 hPa55.00 %11.00 °C 
20:45:0021.50 °C1016.90 hPa52.00 %11.20 °C 
20:30:0022.30 °C1017.10 hPa50.00 %11.40 °C 
20:15:0023.10 °C1017.10 hPa47.00 %11.20 °C 
20:00:0023.90 °C1017.20 hPa44.00 %34.92 km/hN25.20 °C10.90 °C 
19:45:0024.90 °C1017.10 hPa42.00 %38.88 km/hSSO26.40 °C11.10 °C 
19:30:0025.30 °C1017.00 hPa42.00 %3.96 km/hSO25.30 °C11.50 °C 
19:15:0025.60 °C1017.20 hPa41.00 %11.40 °C 
19:00:0025.90 °C1017.40 hPa40.00 %10.44 km/hSSW25.90 °C11.30 °C 
18:45:0026.30 °C1017.40 hPa41.00 %12.00 °C 
18:30:0026.80 °C1017.50 hPa39.00 %11.70 °C 
18:15:0027.10 °C1017.50 hPa40.00 %11.52 km/hSO27.10 °C12.30 °C 
18:00:0027.30 °C1017.60 hPa38.00 %5.04 km/hWSW27.30 °C11.70 °C 
17:45:0027.50 °C1017.70 hPa38.00 %6.48 km/hSW27.50 °C11.90 °C 
17:30:0027.90 °C1017.90 hPa36.00 %28.44 km/hSO30.00 °C11.50 °C 
17:15:0028.30 °C1018.10 hPa38.00 %32.40 km/hSO30.50 °C12.60 °C 
17:00:0028.10 °C1018.40 hPa39.00 %12.80 °C 
16:45:0027.90 °C1018.50 hPa38.00 %3.96 km/hONO27.90 °C12.30 °C 
16:30:0028.30 °C1018.60 hPa38.00 %12.60 °C 
16:15:0028.60 °C1018.90 hPa38.00 %12.90 °C 
16:00:0028.50 °C1019.40 hPa38.00 %12.80 °C 
15:45:0028.40 °C1019.30 hPa39.00 %13.10 °C 
15:30:0027.90 °C1019.60 hPa39.00 %27.36 km/hSW30.00 °C12.70 °C 
15:15:0027.90 °C1019.50 hPa39.00 %12.70 °C 
15:00:0027.80 °C1019.50 hPa39.00 %12.60 °C 
14:45:0028.00 °C1019.50 hPa38.00 %14.40 km/hOSO28.00 °C12.40 °C 
14:30:0027.80 °C1019.80 hPa38.00 %12.20 °C 
14:15:0027.20 °C1020.20 hPa38.00 %11.70 °C 
14:00:0026.90 °C1020.10 hPa38.00 %14.40 km/hSW26.90 °C11.40 °C 
13:45:0026.90 °C1020.30 hPa39.00 %11.80 °C 
13:30:0026.80 °C1020.30 hPa39.00 %5.04 km/hSW26.80 °C11.70 °C 
13:15:0026.60 °C1020.40 hPa39.00 %16.92 km/hSSO26.60 °C11.50 °C 
13:00:0026.40 °C1020.60 hPa40.00 %32.40 km/hS28.20 °C11.70 °C 
12:45:0026.10 °C1020.50 hPa40.00 %11.50 °C 
12:30:0025.80 °C1020.60 hPa40.00 %11.20 °C 
12:15:0025.60 °C1020.70 hPa42.00 %18.00 km/hSO27.50 °C11.70 °C 
12:00:0025.40 °C1020.90 hPa42.00 %11.60 °C 
11:45:0025.20 °C1020.70 hPa44.00 %37.44 km/hSW26.80 °C12.10 °C 
11:30:0024.90 °C1020.70 hPa45.00 %12.20 °C 
11:15:0024.90 °C1020.80 hPa48.00 %13.10 °C 
11:00:0024.90 °C1021.00 hPa50.00 %13.80 °C 
10:45:0024.70 °C1020.90 hPa49.00 %13.30 °C 
10:30:0024.40 °C1021.00 hPa49.00 %13.00 °C 
10:15:0024.10 °C1021.30 hPa50.00 %3.96 km/hSSO24.10 °C13.00 °C 
10:00:0023.70 °C1021.20 hPa52.00 %15.48 km/hS23.70 °C13.30 °C 
09:45:0023.10 °C1021.30 hPa54.00 %13.30 °C 
09:30:0022.90 °C1021.20 hPa58.00 %14.20 °C 
09:15:0022.60 °C1021.40 hPa57.00 %13.70 °C 
09:00:0022.20 °C1021.30 hPa59.00 %13.80 °C 
08:45:0021.60 °C1021.20 hPa62.00 %14.00 °C 
08:30:0021.10 °C1021.10 hPa64.00 %660.96 km/hOSO19.30 °C14.00 °C 
08:15:0020.60 °C1021.00 hPa67.00 %14.30 °C 
08:00:0019.60 °C1020.80 hPa68.00 %13.50 °C 
07:45:0018.20 °C1020.80 hPa71.00 %12.90 °C 
07:30:0016.30 °C1020.80 hPa76.00 %12.10 °C 
07:15:0013.90 °C1020.70 hPa83.00 %11.10 °C 
07:00:0010.20 °C1020.90 hPa89.00 %8.50 °C 
06:45:009.20 °C1020.90 hPa89.00 %7.50 °C 
06:30:008.70 °C1021.00 hPa90.00 %7.20 °C 
06:15:008.10 °C1020.80 hPa91.00 %11.52 km/hSO8.10 °C6.70 °C 
06:00:007.60 °C1020.90 hPa90.00 %6.10 °C 
05:45:007.40 °C1020.80 hPa90.00 %5.90 °C 
05:30:007.40 °C1020.80 hPa90.00 %5.90 °C 
05:15:007.60 °C1020.70 hPa90.00 %6.10 °C 
05:00:007.60 °C1020.50 hPa90.00 %12.96 km/hOSO7.60 °C6.10 °C 
04:45:007.60 °C1020.60 hPa90.00 %6.10 °C 
04:30:007.60 °C1020.50 hPa90.00 %6.10 °C 
04:15:007.50 °C1020.70 hPa90.00 %6.00 °C 
04:00:007.50 °C1020.70 hPa90.00 %5.04 km/hOSO7.50 °C6.00 °C 
03:45:007.60 °C1020.70 hPa90.00 %6.10 °C 
03:30:007.80 °C1020.90 hPa89.00 %6.10 °C 
03:15:007.80 °C1021.00 hPa89.00 %6.10 °C 
03:00:007.80 °C1021.10 hPa89.00 %6.10 °C 
02:45:007.90 °C1021.10 hPa89.00 %6.20 °C 
02:30:008.10 °C1021.20 hPa89.00 %6.40 °C 
02:15:008.40 °C1021.30 hPa88.00 %6.50 °C 
02:00:008.60 °C1021.30 hPa88.00 %6.70 °C 
01:45:008.80 °C1021.30 hPa88.00 %6.90 °C 
01:30:008.90 °C1021.30 hPa88.00 %7.00 °C 
01:15:008.90 °C1021.30 hPa88.00 %7.00 °C 
01:00:009.10 °C1021.40 hPa87.00 %7.10 °C 
00:45:009.30 °C1021.40 hPa86.00 %7.10 °C 
00:30:009.80 °C1021.50 hPa85.00 %7.40 °C 
00:15:0010.10 °C1021.50 hPa86.00 %7.90 °C 
00:00:0010.10 °C1021.50 hPa85.00 %7.70 °C 

Permanenter Link zu dieser Seite: Wetter im Erzgebirge am 19.06.2017
Performance-Info: Die Erstellung der Seite / Statistik(en) / Tabelle(n) erforderte 5 Datenbankserver-Abfrage(n) und dauerte 70 Millisekunden. (Dieser Messwert ist von der Gesamt-Auslastung des Servers abhängig.)
Erzgebirge - Wetter | Erzgebirge - Wetter (Mobilgeräte) | Komplette Klimadatenbank